createdAt,value
2022-11-22T00:01:15.702Z,3.33
2022-11-22T00:03:43.718Z,3.53
2022-11-22T00:06:11.737Z,3.27
2022-11-22T00:08:39.756Z,3.40
2022-11-22T00:11:09.097Z,4.40
2022-11-22T00:13:37.115Z,4.13
2022-11-22T00:16:06.169Z,3.93
2022-11-22T00:18:34.201Z,4.57
2022-11-22T00:21:07.332Z,3.80
2022-11-22T00:23:35.502Z,4.23
2022-11-22T00:26:03.518Z,5.07
2022-11-22T00:28:33.074Z,4.80
2022-11-22T00:31:01.034Z,4.90
2022-11-22T00:33:29.038Z,4.30
2022-11-22T00:35:57.091Z,4.53
2022-11-22T00:38:25.096Z,4.10
2022-11-22T00:40:53.101Z,3.83
2022-11-22T00:43:21.092Z,4.47
2022-11-22T00:45:50.494Z,4.27
2022-11-22T00:48:18.523Z,4.17
2022-11-22T00:50:46.650Z,3.97
2022-11-22T00:53:14.694Z,3.90
2022-11-22T00:55:42.724Z,4.53
2022-11-22T00:58:10.726Z,4.60
2022-11-22T01:00:38.836Z,4.50
2022-11-22T01:03:08.376Z,4.17
2022-11-22T01:05:36.354Z,5.07
2022-11-22T01:08:05.052Z,3.60
2022-11-22T01:10:33.468Z,5.43
2022-11-22T01:13:01.481Z,4.37
2022-11-22T01:15:29.628Z,5.50
2022-11-22T01:17:57.634Z,4.93
2022-11-22T01:20:27.011Z,4.63
2022-11-22T01:22:55.109Z,5.00
2022-11-22T01:25:23.093Z,5.73
2022-11-22T01:27:51.123Z,4.67
2022-11-22T01:30:19.674Z,6.57
2022-11-22T01:32:47.711Z,5.00
2022-11-22T01:35:16.108Z,5.40
2022-11-22T01:37:45.495Z,5.77
2022-11-22T01:40:13.746Z,5.37
2022-11-22T01:42:49.133Z,5.70
2022-11-22T01:45:54.817Z,7.93
2022-11-22T01:48:43.802Z,5.13
2022-11-22T01:51:23.943Z,5.93
2022-11-22T01:53:54.842Z,5.00
2022-11-22T01:56:24.291Z,4.33
2022-11-22T01:58:59.899Z,5.20
2022-11-22T02:01:29.773Z,4.50
2022-11-22T02:04:01.928Z,4.10
2022-11-22T02:06:39.704Z,4.93
2022-11-22T02:09:13.199Z,4.00
2022-11-22T02:11:47.744Z,5.60
2022-11-22T02:14:18.186Z,5.00
2022-11-22T02:16:49.141Z,5.67
2022-11-22T02:19:25.054Z,4.40
2022-11-22T02:22:00.859Z,4.70
2022-11-22T02:24:38.657Z,4.60
2022-11-22T02:27:08.013Z,4.80
2022-11-22T02:29:36.667Z,4.50
2022-11-22T02:32:04.764Z,6.90
2022-11-22T02:34:44.102Z,5.77
2022-11-22T02:37:14.584Z,5.50
2022-11-22T02:39:45.995Z,5.57
2022-11-22T02:42:15.729Z,4.90
2022-11-22T02:44:43.858Z,4.90
2022-11-22T02:47:11.826Z,5.70
2022-11-22T02:49:39.852Z,4.63
2022-11-22T02:52:07.818Z,4.83
2022-11-22T02:54:35.803Z,4.67
2022-11-22T02:57:04.603Z,5.80
2022-11-22T02:59:33.949Z,4.23
2022-11-22T03:02:03.533Z,4.60
2022-11-22T03:04:31.730Z,4.40
2022-11-22T03:07:02.065Z,4.20
2022-11-22T03:09:30.392Z,5.03
2022-11-22T03:11:58.747Z,4.27
2022-11-22T03:14:26.804Z,4.93
2022-11-22T03:16:56.204Z,5.00
2022-11-22T03:19:24.271Z,4.70
2022-11-22T03:21:52.436Z,4.27
2022-11-22T03:24:20.763Z,4.73
2022-11-22T03:26:50.356Z,6.23
2022-11-22T03:29:18.892Z,4.30
2022-11-22T03:31:46.942Z,4.60
2022-11-22T03:34:19.759Z,4.47
2022-11-22T03:36:47.888Z,4.37
2022-11-22T03:39:15.914Z,5.20
2022-11-22T03:41:43.923Z,5.43
2022-11-22T03:44:11.919Z,5.00
2022-11-22T03:46:39.951Z,5.13
2022-11-22T03:49:08.016Z,5.13
2022-11-22T03:51:37.337Z,4.13
2022-11-22T03:54:05.764Z,4.90
2022-11-22T03:56:33.838Z,4.60
2022-11-22T03:59:01.963Z,4.20
2022-11-22T04:01:30.238Z,4.90
2022-11-22T04:03:58.452Z,4.60
2022-11-22T04:06:26.450Z,4.53
2022-11-22T04:08:55.958Z,3.90
2022-11-22T04:11:24.005Z,5.37
2022-11-22T04:14:09.475Z,4.93
2022-11-22T04:16:37.443Z,4.97
2022-11-22T04:19:05.470Z,5.70
2022-11-22T04:21:35.266Z,4.83
2022-11-22T04:24:24.775Z,5.47
2022-11-22T04:26:53.372Z,4.03
2022-11-22T04:29:22.396Z,5.50
2022-11-22T04:32:09.305Z,4.93
2022-11-22T04:34:37.972Z,4.20
2022-11-22T04:37:07.115Z,5.60
2022-11-22T04:39:36.488Z,4.77
2022-11-22T04:42:22.310Z,5.13
2022-11-22T04:44:50.349Z,4.90
2022-11-22T04:47:34.002Z,4.93
2022-11-22T04:50:02.283Z,5.10
2022-11-22T04:52:47.943Z,5.43
2022-11-22T04:55:17.455Z,4.77
2022-11-22T04:57:45.549Z,4.93
2022-11-22T05:00:14.323Z,5.83
2022-11-22T05:02:42.309Z,4.97
2022-11-22T05:05:11.430Z,5.17
2022-11-22T05:07:39.544Z,4.57
2022-11-22T05:10:09.141Z,4.37
2022-11-22T05:12:39.645Z,5.40
2022-11-22T05:15:09.026Z,5.30
2022-11-22T05:17:38.096Z,5.77
2022-11-22T05:20:08.946Z,5.20
2022-11-22T05:22:55.031Z,5.60
2022-11-22T05:25:25.703Z,4.57
2022-11-22T05:27:58.307Z,4.30
2022-11-22T05:30:26.350Z,4.80
2022-11-22T05:32:56.200Z,5.40
2022-11-22T05:35:24.150Z,5.47
2022-11-22T05:37:52.154Z,5.80
2022-11-22T05:40:20.165Z,6.27
2022-11-22T05:42:48.191Z,6.43
2022-11-22T05:45:17.903Z,5.27
2022-11-22T05:47:46.104Z,6.07
2022-11-22T05:50:14.670Z,6.00
2022-11-22T05:52:42.721Z,6.37
2022-11-22T05:55:10.905Z,5.30
2022-11-22T05:57:38.931Z,6.83
2022-11-22T06:00:08.763Z,6.90
2022-11-22T06:02:38.130Z,6.83
2022-11-22T06:05:09.512Z,6.13
2022-11-22T06:07:39.532Z,7.87
2022-11-22T06:10:08.898Z,7.00
2022-11-22T06:12:36.935Z,7.30
2022-11-22T06:15:05.636Z,7.63
2022-11-22T06:17:33.620Z,5.93
2022-11-22T06:20:06.401Z,7.07
2022-11-22T06:22:34.862Z,6.90
2022-11-22T06:25:02.945Z,6.83
2022-11-22T06:27:31.001Z,7.83
2022-11-22T06:29:59.087Z,7.00
2022-11-22T06:32:27.092Z,7.50
2022-11-22T06:34:55.069Z,7.07
2022-11-22T06:37:24.452Z,7.20
2022-11-22T06:39:52.458Z,8.80
2022-11-22T06:42:20.455Z,7.63
2022-11-22T06:44:48.445Z,6.80
2022-11-22T06:47:17.501Z,7.17
2022-11-22T06:49:46.067Z,6.60
2022-11-22T06:52:14.060Z,7.10
2022-11-22T06:54:43.506Z,7.13
2022-11-22T06:57:14.600Z,6.97
2022-11-22T06:59:42.729Z,7.00
2022-11-22T07:02:12.900Z,5.30
2022-11-22T07:05:09.488Z,6.83
2022-11-22T07:07:34.883Z,7.23
2022-11-22T07:10:04.616Z,6.30
2022-11-22T07:12:35.253Z,6.37
2022-11-22T07:15:03.303Z,6.97
2022-11-22T07:17:33.034Z,6.73
2022-11-22T07:20:02.950Z,6.10
2022-11-22T07:22:31.008Z,5.90
2022-11-22T07:24:59.032Z,5.67
2022-11-22T07:27:28.356Z,5.27
2022-11-22T07:29:56.399Z,5.10
2022-11-22T07:32:24.405Z,6.03
2022-11-22T07:34:52.491Z,4.80
2022-11-22T07:37:20.594Z,5.57
2022-11-22T07:39:49.306Z,5.27
2022-11-22T07:42:19.266Z,4.93
2022-11-22T07:44:51.709Z,4.80
2022-11-22T07:47:22.923Z,5.83
2022-11-22T07:49:51.629Z,4.20
2022-11-22T07:52:19.663Z,4.60
2022-11-22T07:54:47.696Z,6.90
2022-11-22T07:57:18.807Z,3.53
2022-11-22T07:59:46.816Z,3.83
2022-11-22T08:02:16.255Z,4.30
2022-11-22T08:04:44.377Z,2.80
2022-11-22T08:07:12.445Z,4.30
2022-11-22T08:09:43.518Z,2.33
2022-11-22T08:12:11.660Z,2.40
2022-11-22T08:14:39.738Z,4.23
2022-11-22T08:17:07.788Z,2.60
2022-11-22T08:19:37.141Z,2.80
2022-11-22T08:22:05.192Z,5.03
2022-11-22T08:24:33.870Z,3.60
2022-11-22T08:27:01.859Z,2.63
2022-11-22T08:29:30.367Z,2.90
2022-11-22T08:31:58.610Z,3.60
2022-11-22T08:34:26.648Z,3.00
2022-11-22T08:36:58.339Z,2.70
2022-11-22T08:39:29.196Z,2.43
2022-11-22T08:42:00.243Z,3.03
2022-11-22T08:44:31.098Z,3.13
2022-11-22T08:46:59.179Z,2.67
2022-11-22T08:49:27.231Z,3.27
2022-11-22T08:51:56.895Z,1.90
2022-11-22T08:54:33.563Z,2.50
2022-11-22T08:57:04.256Z,1.93
2022-11-22T08:59:32.835Z,2.00
2022-11-22T09:02:03.071Z,2.17
2022-11-22T09:04:31.560Z,2.40
2022-11-22T09:09:49.275Z,2.20
2022-11-22T09:12:17.847Z,2.37
2022-11-22T09:14:45.859Z,2.13
2022-11-22T09:17:18.145Z,2.43
2022-11-22T09:19:46.642Z,2.13
2022-11-22T09:22:17.810Z,1.93
2022-11-22T09:24:45.912Z,1.67
2022-11-22T09:27:18.549Z,2.53
2022-11-22T09:29:46.671Z,1.90
2022-11-22T09:32:14.732Z,3.97
2022-11-22T09:34:43.239Z,2.10
2022-11-22T09:37:11.290Z,2.77
2022-11-22T09:39:46.789Z,1.43
2022-11-22T09:42:49.202Z,2.37
2022-11-22T09:45:50.578Z,1.57
2022-11-22T09:48:49.730Z,2.20
2022-11-22T09:51:28.332Z,2.27
2022-11-22T09:54:02.297Z,2.20
2022-11-22T09:56:32.148Z,2.20
2022-11-22T09:59:06.494Z,2.20
2022-11-22T10:01:43.268Z,2.20
2022-11-22T10:04:17.440Z,2.13
2022-11-22T10:06:51.564Z,2.10
2022-11-22T10:09:32.202Z,2.13
2022-11-22T10:12:07.454Z,1.83
2022-11-22T10:14:48.643Z,2.00
2022-11-22T10:17:36.406Z,2.30
2022-11-22T10:20:10.295Z,1.90
2022-11-22T10:22:38.684Z,1.67
2022-11-22T10:25:18.485Z,3.13
2022-11-22T10:27:59.071Z,2.50
2022-11-22T10:30:35.896Z,1.97
2022-11-22T10:33:15.468Z,1.80
2022-11-22T10:36:14.461Z,2.20
2022-11-22T10:39:02.895Z,2.40
2022-11-22T10:41:47.948Z,2.23
2022-11-22T10:44:29.638Z,1.90
2022-11-22T10:47:05.215Z,2.67
2022-11-22T10:49:48.972Z,2.40
2022-11-22T10:52:29.104Z,1.70
2022-11-22T10:55:16.089Z,1.57
2022-11-22T10:57:53.577Z,1.30
2022-11-22T11:00:24.891Z,1.57
2022-11-22T11:03:09.515Z,1.47
2022-11-22T11:06:15.348Z,1.33
2022-11-22T11:09:23.357Z,2.03
2022-11-22T11:11:34.160Z,2.33
2022-11-22T11:14:07.338Z,1.33
2022-11-22T11:16:38.995Z,1.70
2022-11-22T11:19:20.534Z,3.33
2022-11-22T11:22:00.128Z,2.73
2022-11-22T11:24:31.098Z,1.20
2022-11-22T11:27:01.459Z,2.17
2022-11-22T11:29:51.769Z,2.63
2022-11-22T11:32:22.565Z,1.90
2022-11-22T11:34:56.812Z,2.00
2022-11-22T11:37:32.807Z,2.00
2022-11-22T11:40:00.887Z,1.60
2022-11-22T11:42:31.717Z,1.33
2022-11-22T11:45:28.734Z,2.23
2022-11-22T11:47:58.107Z,1.03
2022-11-22T11:50:28.531Z,1.33
2022-11-22T11:52:58.617Z,2.23
2022-11-22T11:55:31.628Z,1.90
2022-11-22T11:57:59.929Z,1.50
2022-11-22T12:00:36.709Z,2.63
2022-11-22T12:03:12.032Z,1.70
2022-11-22T12:05:40.139Z,2.47
2022-11-22T12:08:30.551Z,2.63
2022-11-22T12:11:05.663Z,3.73
2022-11-22T12:13:58.112Z,2.57
2022-11-22T12:16:31.504Z,3.27
2022-11-22T12:19:24.374Z,1.47
2022-11-22T12:22:01.835Z,4.30
2022-11-22T12:25:02.571Z,2.03
2022-11-22T12:27:24.767Z,4.93
2022-11-22T12:29:55.591Z,1.83
2022-11-22T12:32:29.006Z,2.97
2022-11-22T12:35:04.568Z,3.40
2022-11-22T12:37:40.752Z,3.80
2022-11-22T12:40:18.983Z,1.60
2022-11-22T12:42:51.448Z,2.43
2022-11-22T12:45:29.504Z,1.27
2022-11-22T12:48:01.366Z,1.27
2022-11-22T12:50:38.760Z,2.13
2022-11-22T12:53:13.430Z,1.00
2022-11-22T12:55:50.587Z,1.20
2022-11-22T12:58:25.493Z,1.50
2022-11-22T13:01:13.393Z,1.20
2022-11-22T13:03:50.995Z,1.20
2022-11-22T13:06:24.974Z,1.47
2022-11-22T13:09:03.749Z,1.33
2022-11-22T13:11:36.575Z,1.77
2022-11-22T13:14:13.191Z,1.80
2022-11-22T13:16:44.582Z,0.87
2022-11-22T13:19:16.864Z,2.50
2022-11-22T13:22:11.488Z,1.43
2022-11-22T13:24:56.260Z,3.70
2022-11-22T13:27:30.864Z,1.70
2022-11-22T13:30:02.129Z,0.80
2022-11-22T13:32:33.549Z,4.13
2022-11-22T13:35:07.378Z,6.60
2022-11-22T13:37:40.442Z,3.90
2022-11-22T13:40:25.872Z,1.70
2022-11-22T13:43:49.179Z,2.67
2022-11-22T13:46:54.715Z,4.80
2022-11-22T13:49:39.115Z,2.10
2022-11-22T13:52:54.398Z,3.70
2022-11-22T13:55:41.697Z,3.00
2022-11-22T13:58:54.944Z,2.97
2022-11-22T14:01:59.280Z,2.60
2022-11-22T14:04:39.940Z,2.97
2022-11-22T14:07:35.417Z,2.43
2022-11-22T14:10:26.580Z,2.20
2022-11-22T14:13:25.187Z,2.50
2022-11-22T14:16:04.163Z,2.30
2022-11-22T14:18:52.294Z,1.80
2022-11-22T14:21:47.628Z,1.63
2022-11-22T14:24:31.870Z,2.10
2022-11-22T14:27:14.137Z,2.37
2022-11-22T14:30:12.183Z,1.73
2022-11-22T14:32:59.417Z,2.53
2022-11-22T14:35:36.424Z,1.27
2022-11-22T14:38:30.929Z,1.50
2022-11-22T14:41:53.891Z,1.20
2022-11-22T14:44:33.084Z,1.40
2022-11-22T14:47:07.587Z,1.40
2022-11-22T14:49:43.723Z,1.20
2022-11-22T14:52:21.905Z,1.37
2022-11-22T14:54:54.854Z,1.57
2022-11-22T14:57:26.259Z,1.63
2022-11-22T15:00:19.515Z,1.47
2022-11-22T15:03:41.968Z,1.50
2022-11-22T15:09:19.184Z,2.40
2022-11-22T15:09:52.978Z,1.50
2022-11-22T15:12:55.151Z,1.20
2022-11-22T15:57:35.420Z,1.10
2022-11-22T16:00:10.054Z,1.30
2022-11-22T16:02:50.458Z,1.30
2022-11-22T16:06:03.555Z,1.23
2022-11-22T16:08:18.241Z,1.43
2022-11-22T16:10:50.982Z,1.37
2022-11-22T16:13:28.890Z,1.90
2022-11-22T16:16:21.053Z,3.13
2022-11-22T16:18:50.717Z,2.10
2022-11-22T16:21:28.900Z,1.80
2022-11-22T16:24:12.571Z,1.60
2022-11-22T16:26:40.962Z,1.40
2022-11-22T16:29:29.036Z,1.50
2022-11-22T16:32:02.704Z,1.47
2022-11-22T16:34:30.998Z,1.50
2022-11-22T16:37:00.431Z,1.47
2022-11-22T16:39:29.028Z,1.77
2022-11-22T16:41:57.305Z,2.07
2022-11-22T16:44:26.070Z,2.00
2022-11-22T16:46:54.132Z,11.50
2022-11-22T16:49:23.757Z,4.53
2022-11-22T16:51:52.569Z,4.70
2022-11-22T16:54:23.784Z,3.80
2022-11-22T16:56:51.828Z,2.90
2022-11-22T16:59:19.786Z,2.20
2022-11-22T17:01:47.746Z,4.53
2022-11-22T17:04:23.277Z,11.90
2022-11-22T17:06:52.349Z,2.20
2022-11-22T17:09:21.842Z,3.17
2022-11-22T17:11:50.455Z,2.80
2022-11-22T17:14:19.907Z,2.90
2022-11-22T17:16:50.477Z,2.77
2022-11-22T17:19:45.366Z,2.33
2022-11-22T17:22:07.237Z,4.43
2022-11-22T17:24:36.769Z,2.20
2022-11-22T17:27:05.039Z,2.60
2022-11-22T17:32:23.226Z,2.00
2022-11-22T17:34:51.391Z,1.50
2022-11-22T17:37:19.460Z,1.53
2022-11-22T17:39:52.473Z,1.30
2022-11-22T17:42:20.444Z,1.57
2022-11-22T17:44:48.406Z,1.50
2022-11-22T17:47:16.411Z,1.40
2022-11-22T17:49:44.444Z,2.03
2022-11-22T17:52:12.476Z,2.00
2022-11-22T17:54:40.445Z,4.60
2022-11-22T17:57:10.094Z,2.93
2022-11-22T17:59:38.083Z,2.97
2022-11-22T18:02:06.142Z,3.80
2022-11-22T18:04:34.422Z,3.07
2022-11-22T18:07:02.837Z,2.83
2022-11-22T18:09:31.414Z,2.70
2022-11-22T18:11:59.615Z,2.37
2022-11-22T18:14:30.526Z,1.93
2022-11-22T18:17:00.345Z,2.50
2022-11-22T18:19:28.506Z,2.30
2022-11-22T18:21:57.879Z,2.93
2022-11-22T18:24:26.188Z,3.80
2022-11-22T18:26:54.209Z,2.40
2022-11-22T18:32:12.362Z,3.73
2022-11-22T18:34:41.426Z,3.37
2022-11-22T18:37:09.453Z,2.73
2022-11-22T18:39:39.779Z,2.90
2022-11-22T18:42:13.425Z,2.63
2022-11-22T18:44:41.888Z,2.33
2022-11-22T18:47:11.819Z,2.57
2022-11-22T18:49:39.857Z,2.50
2022-11-22T18:52:09.677Z,4.70
2022-11-22T18:54:40.044Z,3.10
2022-11-22T18:57:08.360Z,2.27
2022-11-22T18:59:36.386Z,1.90
2022-11-22T19:02:04.421Z,2.50
2022-11-22T19:04:34.002Z,2.97
2022-11-22T19:07:02.312Z,3.43
2022-11-22T19:09:30.281Z,5.17
2022-11-22T19:11:58.870Z,2.10
2022-11-22T19:14:28.898Z,3.07
2022-11-22T19:16:57.692Z,3.20
2022-11-22T19:19:25.740Z,3.97
2022-11-22T19:21:55.069Z,4.27
2022-11-22T19:24:23.061Z,3.57
2022-11-22T19:26:51.300Z,3.90
2022-11-22T19:29:20.747Z,3.10
2022-11-22T19:31:48.904Z,4.10
2022-11-22T19:34:16.966Z,4.20
2022-11-22T19:36:45.086Z,3.23
2022-11-22T19:39:16.643Z,3.53
2022-11-22T19:41:45.932Z,1.90
2022-11-22T19:44:14.084Z,2.70
2022-11-22T19:46:42.469Z,3.40
2022-11-22T19:49:10.718Z,2.87
2022-11-22T19:51:39.168Z,4.90
2022-11-22T19:54:08.077Z,2.80
2022-11-22T19:56:39.627Z,2.97
2022-11-22T19:59:15.519Z,3.53
2022-11-22T20:01:44.515Z,3.07
2022-11-22T20:04:15.221Z,3.97
2022-11-22T20:06:48.654Z,4.50
2022-11-22T20:09:18.105Z,3.77
2022-11-22T20:11:47.510Z,3.67
2022-11-22T20:14:15.553Z,3.50
2022-11-22T20:16:43.813Z,6.10
2022-11-22T20:19:12.592Z,3.03
2022-11-22T20:21:41.397Z,3.00
2022-11-22T20:24:10.002Z,2.50
2022-11-22T20:26:38.306Z,2.07
2022-11-22T20:29:11.708Z,2.10
2022-11-22T20:31:40.789Z,2.53
2022-11-22T20:34:09.921Z,2.50
2022-11-22T20:36:37.931Z,3.50
2022-11-22T20:39:10.423Z,2.73
2022-11-22T20:41:40.021Z,3.50
2022-11-22T20:44:13.443Z,6.90
2022-11-22T20:46:42.476Z,4.43
2022-11-22T20:49:10.569Z,6.10
2022-11-22T20:51:39.897Z,4.67
2022-11-22T20:54:08.884Z,3.30
2022-11-22T20:56:37.357Z,3.23
2022-11-22T20:59:05.963Z,3.77
2022-11-22T21:01:35.379Z,2.50
2022-11-22T21:04:03.550Z,3.80
2022-11-22T21:06:32.824Z,4.60
2022-11-22T21:09:00.932Z,4.90
2022-11-22T21:11:30.920Z,7.13
2022-11-22T21:13:59.363Z,3.87
2022-11-22T21:16:29.645Z,3.17
2022-11-22T21:19:01.561Z,2.87
2022-11-22T21:21:30.674Z,3.50
2022-11-22T21:24:00.795Z,3.20
2022-11-22T21:26:29.469Z,2.67
2022-11-22T21:28:57.936Z,2.60
2022-11-22T21:31:26.372Z,2.67
2022-11-22T21:33:55.129Z,2.60
2022-11-22T21:36:25.003Z,2.80
2022-11-22T21:38:53.044Z,3.23
2022-11-22T21:41:39.350Z,3.03
2022-11-22T21:44:07.928Z,3.27
2022-11-22T21:46:35.956Z,2.47
2022-11-22T21:49:04.096Z,2.87
2022-11-22T21:51:34.975Z,2.90
2022-11-22T21:54:04.824Z,2.83
2022-11-22T21:56:32.914Z,3.00
2022-11-22T21:59:01.063Z,2.73
2022-11-22T22:01:29.298Z,2.80
2022-11-22T22:03:57.381Z,3.47
2022-11-22T22:06:25.434Z,2.77
2022-11-22T22:08:54.842Z,2.43
2022-11-22T22:11:23.002Z,2.67
2022-11-22T22:13:53.103Z,2.03
2022-11-22T22:16:23.625Z,2.53
2022-11-22T22:18:51.881Z,3.10
2022-11-22T22:21:21.294Z,3.20
2022-11-22T22:23:49.308Z,2.67
2022-11-22T22:26:19.087Z,3.70
2022-11-22T22:28:47.534Z,2.70
2022-11-22T22:31:21.438Z,2.80
2022-11-22T22:33:51.566Z,2.70
2022-11-22T22:36:19.933Z,3.20
2022-11-22T22:38:47.998Z,2.30
2022-11-22T22:41:16.427Z,2.23
2022-11-22T22:43:48.151Z,4.00
2022-11-22T22:46:18.832Z,9.47
2022-11-22T22:48:48.059Z,6.77
2022-11-22T22:51:18.734Z,3.80
2022-11-22T22:53:47.650Z,2.40
2022-11-22T22:56:18.943Z,2.03
2022-11-22T22:58:49.028Z,2.40
2022-11-22T23:01:20.551Z,2.10
2022-11-22T23:03:49.434Z,2.37
2022-11-22T23:06:18.785Z,3.43
2022-11-22T23:08:50.037Z,3.03
2022-11-22T23:11:22.744Z,3.07
2022-11-22T23:13:52.060Z,2.13
2022-11-22T23:16:20.116Z,1.60
2022-11-22T23:18:48.105Z,2.83
2022-11-22T23:21:16.643Z,2.00
2022-11-22T23:23:44.635Z,3.17
2022-11-22T23:26:13.721Z,1.90
2022-11-22T23:28:41.727Z,2.50
2022-11-22T23:31:17.331Z,1.97
2022-11-22T23:33:47.563Z,1.77
2022-11-22T23:36:18.150Z,1.93
2022-11-22T23:38:46.920Z,1.40
2022-11-22T23:41:17.032Z,1.50
2022-11-22T23:43:45.404Z,2.20
2022-11-22T23:46:16.864Z,2.40
2022-11-22T23:48:45.512Z,1.93
2022-11-22T23:51:14.640Z,2.60
2022-11-22T23:53:42.896Z,1.50
2022-11-22T23:56:15.090Z,2.50
2022-11-22T23:58:46.363Z,2.00
